Time;durP1;ratioP1;P1;durP2;ratioP2;P2;SDS_P1;SDS_P2;PMS_P1;PMS_P2;Temp;Humidity;BMP_temperature;BMP_pressure;BME280_temperature;BME280_humidity;BME280_pressure;Samples;Min_cycle;Max_cycle;Signal;HPM_P1;HPM_P2
2024/02/07 00:00:22;;;;;;;11.60;6.43;;;10.50;25.30;;;;;;5102830;28;20241;-72
2024/02/07 00:02:48;;;;;;;14.83;6.30;;;10.50;28.50;;;;;;5114249;28;20192;-73
2024/02/07 00:05:14;;;;;;;15.47;7.13;;;10.50;43.70;;;;;;5114118;28;20458;-74
2024/02/07 00:07:40;;;;;;;8.37;6.53;;;10.50;82.80;;;;;;5113984;28;20207;-74
2024/02/07 00:10:06;;;;;;;16.20;8.70;;;10.50;99.90;;;;;;5111618;28;20287;-73
2024/02/07 00:12:32;;;;;;;11.47;7.77;;;10.50;99.90;;;;;;5114287;28;20177;-72
2024/02/07 00:14:57;;;;;;;10.07;7.00;;;10.50;99.90;;;;;;5100263;28;20605;-72
2024/02/07 00:17:23;;;;;;;9.60;8.00;;;10.50;99.90;;;;;;5093125;28;20173;-73
2024/02/07 00:19:50;;;;;;;11.47;7.63;;;10.50;99.90;;;;;;5093440;28;20195;-73
2024/02/07 00:22:16;;;;;;;9.97;7.43;;;10.50;99.90;;;;;;5093481;28;20529;-72
2024/02/07 00:24:41;;;;;;;15.43;7.57;;;10.50;99.90;;;;;;5093439;28;20242;-72
2024/02/07 00:27:07;;;;;;;11.73;7.37;;;10.50;99.90;;;;;;5101918;28;20169;-73
2024/02/07 00:29:33;;;;;;;14.77;7.90;;;10.50;99.90;;;;;;5095456;28;20261;-72
2024/02/07 00:31:58;;;;;;;10.87;7.93;;;10.40;99.90;;;;;;5093195;28;20176;-71
2024/02/07 00:34:24;;;;;;;12.90;7.77;;;10.40;99.90;;;;;;5111106;28;20204;-72
2024/02/07 00:36:49;;;;;;;10.97;7.97;;;10.40;99.90;;;;;;5113607;28;20717;-72
2024/02/07 00:39:15;;;;;;;11.33;7.73;;;10.40;99.90;;;;;;5113298;28;20513;-73
2024/02/07 00:41:40;;;;;;;13.00;8.07;;;10.40;99.90;;;;;;5103868;28;20223;-72
2024/02/07 00:44:06;;;;;;;11.07;8.67;;;10.40;99.90;;;;;;5092788;28;20209;-71
2024/02/07 00:46:32;;;;;;;17.63;7.67;;;10.40;99.90;;;;;;5092632;28;20170;-73
2024/02/07 00:48:59;;;;;;;15.57;8.03;;;10.40;99.90;;;;;;5092954;28;20638;-72
2024/02/07 00:51:24;;;;;;;11.70;7.77;;;10.40;99.90;;;;;;5092499;28;20169;-72
2024/02/07 00:53:50;;;;;;;13.77;8.10;;;10.40;99.90;;;;;;5093882;28;20193;-72
2024/02/07 00:56:15;;;;;;;10.77;7.60;;;10.40;99.90;;;;;;5092959;28;20177;-73
2024/02/07 00:58:41;;;;;;;14.47;8.53;;;10.40;99.90;;;;;;5092822;28;20235;-73
2024/02/07 01:01:08;;;;;;;9.43;7.70;;;10.40;99.90;;;;;;5092465;28;20162;-73
2024/02/07 01:03:34;;;;;;;13.90;8.00;;;10.40;99.90;;;;;;5092448;28;20193;-72
2024/02/07 01:06:00;;;;;;;9.97;8.00;;;10.40;99.90;;;;;;5092794;28;20162;-73
2024/02/07 01:08:25;;;;;;;12.03;8.63;;;10.40;99.90;;;;;;5100840;28;20241;-72
2024/02/07 01:10:51;;;;;;;9.90;7.17;;;10.40;99.90;;;;;;5096249;28;20188;-72
2024/02/07 01:13:16;;;;;;;12.57;7.07;;;10.40;99.90;;;;;;5103536;28;20211;-73
2024/02/07 01:15:43;;;;;;;11.07;7.40;;;10.40;99.90;;;;;;5112961;28;20557;-71
2024/02/07 01:18:08;;;;;;;12.97;7.43;;;10.40;99.90;;;;;;5113585;28;20189;-72
2024/02/07 01:20:34;;;;;;;11.27;7.30;;;10.50;99.90;;;;;;5114802;28;20180;-71
2024/02/07 01:23:00;;;;;;;14.00;7.57;;;10.50;99.90;;;;;;5100117;28;20681;-72
2024/02/07 01:25:26;;;;;;;11.07;6.93;;;10.50;99.90;;;;;;5092299;28;20451;-72
2024/02/07 01:27:52;;;;;;;10.30;6.97;;;10.40;99.90;;;;;;5092234;28;20593;-72
2024/02/07 01:30:18;;;;;;;8.87;8.13;;;10.40;99.90;;;;;;5091960;28;20257;-71
2024/02/07 01:32:45;;;;;;;8.27;6.97;;;10.50;99.90;;;;;;5105174;28;20216;-72
2024/02/07 01:35:11;;;;;;;14.47;7.70;;;10.40;99.90;;;;;;5112289;28;20204;-72
2024/02/07 01:37:40;;;;;;;9.30;6.47;;;10.40;99.90;;;;;;5094613;28;20213;-71
2024/02/07 01:40:09;;;;;;;10.90;7.80;;;10.40;99.90;;;;;;5091830;28;20173;-71
2024/02/07 01:42:35;;;;;;;8.40;7.23;;;10.40;99.90;;;;;;5091828;28;20205;-71
2024/02/07 01:45:31;;;;;;;10.47;7.70;;;10.40;99.90;;;;;;5108834;28;20193;-71
2024/02/07 01:47:57;;;;;;;7.23;6.60;;;10.40;99.90;;;;;;5095277;28;20177;-71
2024/02/07 01:50:24;;;;;;;9.37;7.53;;;10.40;99.90;;;;;;5098017;28;20184;-72
2024/02/07 01:52:54;;;;;;;12.47;7.57;;;10.40;99.90;;;;;;5112443;28;20225;-72
2024/02/07 01:55:20;;;;;;;13.13;7.40;;;10.40;99.90;;;;;;5111936;28;20246;-72
2024/02/07 01:57:48;;;;;;;8.40;7.17;;;10.40;99.90;;;;;;5112473;28;20621;-72
2024/02/07 02:00:14;;;;;;;8.97;8.00;;;10.30;99.90;;;;;;5111649;28;20165;-72
2024/02/07 02:02:43;;;;;;;11.90;7.90;;;10.30;99.90;;;;;;5112176;28;20215;-72
2024/02/07 02:05:09;;;;;;;10.13;7.80;;;10.30;99.90;;;;;;5098903;28;20194;-72
2024/02/07 02:07:34;;;;;;;11.90;7.90;;;10.30;99.90;;;;;;5091373;28;20264;-72
2024/02/07 02:10:00;;;;;;;9.57;8.67;;;10.30;99.90;;;;;;5092117;28;20182;-72
2024/02/07 02:12:26;;;;;;;12.30;7.20;;;10.30;99.90;;;;;;5091698;28;20180;-73
2024/02/07 02:14:52;;;;;;;11.93;7.40;;;10.30;99.90;;;;;;5091609;28;20671;-72
2024/02/07 02:17:17;;;;;;;13.27;7.53;;;10.30;99.90;;;;;;5091425;28;20249;-72
2024/02/07 02:19:43;;;;;;;13.60;7.97;;;10.30;99.90;;;;;;5091346;28;20246;-73
2024/02/07 02:22:23;;;;;;;9.60;7.93;;;10.30;99.90;;;;;;5091599;28;20211;-72
2024/02/07 02:24:48;;;;;;;14.47;7.30;;;10.30;99.90;;;;;;5091598;28;20237;-73
2024/02/07 02:27:17;;;;;;;14.33;7.33;;;10.30;99.90;;;;;;5091324;28;20197;-72
2024/02/07 02:29:53;;;;;;;10.93;7.57;;;10.30;99.90;;;;;;5073048;28;20200;-73
2024/02/07 02:32:23;;;;;;;11.80;7.43;;;10.30;99.90;;;;;;5092603;28;20177;-72
2024/02/07 02:34:53;;;;;;;13.77;7.87;;;10.30;99.90;;;;;;5082732;28;20730;-72
2024/02/07 02:37:21;;;;;;;10.53;8.23;;;10.30;99.90;;;;;;5111251;28;20161;-72
2024/02/07 02:39:47;;;;;;;9.30;7.17;;;10.30;99.90;;;;;;5091585;28;20169;-72
2024/02/07 02:42:13;;;;;;;9.40;6.87;;;10.30;99.90;;;;;;5091842;28;20252;-72
2024/02/07 02:44:39;;;;;;;11.90;7.60;;;10.30;99.90;;;;;;5091343;28;20632;-72
2024/02/07 02:47:07;;;;;;;11.43;7.20;;;10.30;99.90;;;;;;5095008;28;20197;-72
2024/02/07 02:49:34;;;;;;;10.70;7.67;;;10.30;99.90;;;;;;5090918;28;20651;-72
2024/02/07 02:52:00;;;;;;;10.77;7.60;;;10.30;99.90;;;;;;5095443;28;20168;-71
2024/02/07 02:54:26;;;;;;;14.40;7.27;;;10.30;99.90;;;;;;5111178;28;20193;-72
2024/02/07 02:56:59;;;;;;;10.57;7.40;;;10.30;99.90;;;;;;5111383;28;20176;-72
2024/02/07 02:59:25;;;;;;;11.83;8.63;;;10.30;99.90;;;;;;5092470;28;20169;-72
2024/02/07 03:01:51;;;;;;;13.40;6.87;;;10.30;99.90;;;;;;5108053;28;20637;-72
2024/02/07 03:04:17;;;;;;;10.77;7.07;;;10.30;99.90;;;;;;5111243;28;20682;-72
2024/02/07 03:06:58;;;;;;;8.67;7.20;;;10.30;99.90;;;;;;5114255;28;20176;-72
2024/02/07 03:09:27;;;;;;;12.07;6.90;;;10.30;99.90;;;;;;5115296;28;20164;-72
2024/02/07 03:11:53;;;;;;;9.60;7.07;;;10.30;99.90;;;;;;5108917;28;20169;-73
2024/02/07 03:14:19;;;;;;;6.67;5.70;;;10.30;99.90;;;;;;5098605;28;20223;-72
2024/02/07 03:16:45;;;;;;;9.43;6.77;;;10.20;99.90;;;;;;5115079;28;20586;-72
2024/02/07 03:19:12;;;;;;;11.70;7.07;;;10.20;99.90;;;;;;5115159;28;20279;-73
2024/02/07 03:21:39;;;;;;;10.53;6.30;;;10.20;99.90;;;;;;5114899;28;20222;-73
2024/02/07 03:24:05;;;;;;;10.13;7.10;;;10.20;99.90;;;;;;5115003;28;20223;-72
2024/02/07 03:26:30;;;;;;;9.77;6.53;;;10.20;99.90;;;;;;5115438;28;20665;-73
2024/02/07 03:28:56;;;;;;;7.50;6.37;;;10.20;99.90;;;;;;5105560;28;20181;-73
2024/02/07 03:31:22;;;;;;;7.60;6.83;;;10.30;99.90;;;;;;5097352;28;20644;-73
2024/02/07 03:33:48;;;;;;;9.13;7.40;;;10.30;99.90;;;;;;5114762;28;20539;-72
2024/02/07 03:36:13;;;;;;;13.57;7.17;;;10.20;99.90;;;;;;5115131;28;20645;-72
2024/02/07 03:38:40;;;;;;;10.63;7.03;;;10.20;99.90;;;;;;5112256;28;20190;-73
2024/02/07 03:41:06;;;;;;;10.63;7.37;;;10.30;99.90;;;;;;5094166;28;20165;-72
2024/02/07 03:43:33;;;;;;;12.10;7.53;;;10.20;99.90;;;;;;5107256;28;20261;-72
2024/02/07 03:46:00;;;;;;;10.70;6.90;;;10.30;99.90;;;;;;5114168;28;20230;-72
2024/02/07 03:48:27;;;;;;;8.00;7.20;;;10.30;99.90;;;;;;5114680;28;20172;-73
2024/02/07 03:50:53;;;;;;;9.80;6.30;;;10.30;99.90;;;;;;5114688;28;20535;-73
2024/02/07 03:53:19;;;;;;;10.63;6.93;;;10.20;99.90;;;;;;5114738;28;20169;-73
2024/02/07 03:55:44;;;;;;;7.57;6.40;;;10.30;99.90;;;;;;5114324;28;20188;-73
2024/02/07 03:58:10;;;;;;;12.67;6.87;;;10.30;99.90;;;;;;5112835;28;20794;-73
2024/02/07 04:00:35;;;;;;;9.50;6.57;;;10.30;99.90;;;;;;5114243;28;20633;-73
2024/02/07 04:03:02;;;;;;;7.80;6.10;;;10.30;99.90;;;;;;5114689;28;20200;-73
2024/02/07 04:05:27;;;;;;;7.60;6.97;;;10.30;99.90;;;;;;5114608;28;20290;-73
2024/02/07 04:07:53;;;;;;;7.67;6.07;;;10.30;99.90;;;;;;5115273;28;20176;-74
2024/02/07 04:10:19;;;;;;;15.77;8.00;;;10.30;99.90;;;;;;5113842;28;20169;-74
2024/02/07 05:15:33;;;;;;;12.33;9.63;;;7.50;99.90;;;;;;5092253;28;20246;-75
2024/02/07 05:17:58;;;;;;;13.00;10.03;;;7.10;99.90;;;;;;5092374;28;20177;-76
2024/02/07 05:20:24;;;;;;;18.37;11.43;;;6.80;99.90;;;;;;5092367;28;20559;-75
2024/02/07 05:22:50;;;;;;;18.60;11.83;;;6.60;99.90;;;;;;5092296;28;20549;-75
2024/02/07 05:25:16;;;;;;;15.93;11.23;;;6.50;99.90;;;;;;5092671;28;20268;-76
2024/02/07 05:27:42;;;;;;;19.43;12.77;;;6.40;99.90;;;;;;5093398;28;20181;-75
2024/02/07 05:30:08;;;;;;;18.83;13.60;;;6.30;99.90;;;;;;5092425;28;20173;-75
2024/02/07 05:32:34;;;;;;;16.03;11.93;;;6.20;99.90;;;;;;5092049;28;20587;-76
2024/02/07 05:35:00;;;;;;;25.17;14.20;;;6.10;99.90;;;;;;5122734;22;20216;-76
2024/02/07 05:37:25;;;;;;;21.77;13.17;;;6.10;99.90;;;;;;5112982;28;20176;-76
2024/02/07 05:39:51;;;;;;;18.33;12.50;;;6.20;99.90;;;;;;5094357;28;20228;-75
2024/02/07 05:42:17;;;;;;;19.50;13.57;;;6.10;99.90;;;;;;5112906;28;20168;-76
2024/02/07 05:44:43;;;;;;;15.23;11.43;;;6.10;99.90;;;;;;5106161;28;20213;-76
2024/02/07 05:47:08;;;;;;;18.67;12.00;;;6.00;99.90;;;;;;5091820;28;20188;-76
2024/02/07 05:49:34;;;;;;;16.07;10.87;;;6.00;99.90;;;;;;5071168;28;20170;-76
2024/02/07 05:51:59;;;;;;;15.53;10.90;;;6.00;99.90;;;;;;5071767;28;20192;-76
2024/02/07 05:54:25;;;;;;;9.50;8.17;;;6.00;99.90;;;;;;5071879;28;20568;-77
2024/02/07 05:56:51;;;;;;;7.97;7.17;;;6.00;99.90;;;;;;5067250;28;20181;-77
2024/02/07 05:59:18;;;;;;;6.97;6.33;;;6.00;99.90;;;;;;5092345;28;20256;-76
2024/02/07 06:01:44;;;;;;;7.87;6.67;;;6.00;99.90;;;;;;5091685;28;20226;-77
2024/02/07 06:04:10;;;;;;;6.63;6.00;;;6.00;99.90;;;;;;5073336;28;20704;-77
2024/02/07 06:06:36;;;;;;;6.53;6.03;;;6.00;99.90;;;;;;5091151;28;20455;-77
2024/02/07 06:09:04;;;;;;;6.77;6.17;;;6.00;99.90;;;;;;5073957;28;20231;-75
2024/02/07 06:11:32;;;;;;;8.50;6.07;;;6.00;99.90;;;;;;5070356;28;20205;-76
2024/02/07 06:14:05;;;;;;;10.27;6.80;;;5.90;99.90;;;;;;5071071;28;20541;-77
2024/02/07 06:16:31;;;;;;;8.27;5.60;;;6.00;99.90;;;;;;5081799;28;20216;-77
2024/02/07 06:18:56;;;;;;;7.37;5.97;;;6.00;99.90;;;;;;5073131;28;20197;-74
2024/02/07 06:21:22;;;;;;;6.67;5.57;;;5.90;99.90;;;;;;5091033;28;20178;-75
2024/02/07 06:23:48;;;;;;;6.07;5.53;;;5.90;99.90;;;;;;5084303;28;20678;-77
2024/02/07 06:26:15;;;;;;;5.70;5.03;;;5.80;99.90;;;;;;5071111;28;20784;-77
2024/02/07 06:28:40;;;;;;;5.87;5.30;;;5.80;99.90;;;;;;5071041;28;20752;-76
2024/02/07 06:31:06;;;;;;;6.63;5.07;;;5.80;99.90;;;;;;5071089;28;20252;-77
2024/02/07 06:33:31;;;;;;;5.97;5.47;;;5.80;99.90;;;;;;5073409;28;20953;-77
2024/02/07 06:35:57;;;;;;;6.77;5.30;;;5.70;99.90;;;;;;5091021;28;20243;-77
2024/02/07 06:38:23;;;;;;;5.90;5.33;;;5.60;99.90;;;;;;5091457;28;20594;-77
2024/02/07 06:40:48;;;;;;;6.23;5.60;;;5.60;99.90;;;;;;5081882;28;20260;-77
2024/02/07 06:43:14;;;;;;;6.30;5.70;;;5.60;99.90;;;;;;5075742;28;20705;-77
2024/02/07 06:45:39;;;;;;;6.63;5.77;;;5.70;99.90;;;;;;5074530;28;20271;-77
2024/02/07 06:48:06;;;;;;;8.67;6.03;;;5.70;99.90;;;;;;5085962;28;20173;-77
2024/02/07 06:50:31;;;;;;;7.17;5.17;;;5.70;99.90;;;;;;5094049;28;20170;-77
2024/02/07 06:52:57;;;;;;;9.20;4.57;;;5.70;99.90;;;;;;5095060;28;20173;-77
2024/02/07 06:55:23;;;;;;;5.20;4.70;;;5.60;99.90;;;;;;5094899;28;20193;-76
2024/02/07 06:57:49;;;;;;;6.67;4.73;;;5.50;99.90;;;;;;5076729;28;20173;-77
2024/02/07 07:00:16;;;;;;;6.73;5.30;;;5.60;99.90;;;;;;5079587;28;20732;-75
2024/02/07 07:02:42;;;;;;;8.33;5.17;;;5.60;99.90;;;;;;5074291;28;20189;-77
2024/02/07 07:05:08;;;;;;;5.27;4.73;;;5.50;99.90;;;;;;5082883;28;20236;-76
2024/02/07 07:07:34;;;;;;;9.77;5.00;;;5.50;99.90;;;;;;5094150;28;20174;-76
2024/02/07 07:10:00;;;;;;;7.23;5.90;;;5.50;99.90;;;;;;5094102;28;20679;-76
2024/02/07 07:12:26;;;;;;;10.70;5.53;;;5.50;99.90;;;;;;5094637;28;20179;-76
2024/02/07 07:14:52;;;;;;;10.03;5.63;;;5.40;99.90;;;;;;5094224;28;20193;-76
2024/02/07 07:17:17;;;;;;;12.93;5.47;;;5.40;99.90;;;;;;5095646;28;20180;-78
2024/02/07 07:19:43;;;;;;;8.33;5.17;;;5.30;99.90;;;;;;5076095;28;20162;-77
2024/02/07 07:22:10;;;;;;;13.37;6.30;;;5.40;99.90;;;;;;5075676;28;20198;-77
2024/02/07 07:24:36;;;;;;;12.03;6.10;;;5.30;99.90;;;;;;5074731;28;20212;-78
2024/02/07 07:27:03;;;;;;;8.07;6.40;;;5.30;99.90;;;;;;5060167;28;20601;-76
2024/02/07 07:29:28;;;;;;;13.23;6.40;;;5.30;99.90;;;;;;5095126;28;20180;-76
2024/02/07 07:31:54;;;;;;;11.60;6.70;;;5.30;99.90;;;;;;5096474;28;20177;-78
2024/02/07 07:34:20;;;;;;;7.80;6.00;;;5.30;99.90;;;;;;5095241;28;20701;-77
2024/02/07 07:36:46;;;;;;;8.43;6.50;;;5.40;99.90;;;;;;5095164;28;20638;-76
2024/02/07 07:39:12;;;;;;;7.13;6.37;;;5.30;99.90;;;;;;5094893;28;20181;-77
2024/02/07 07:41:38;;;;;;;11.17;6.90;;;5.30;99.90;;;;;;5077501;28;20210;-79
2024/02/07 07:44:04;;;;;;;7.93;6.63;;;5.30;99.90;;;;;;5093874;28;20236;-76
2024/02/07 07:46:30;;;;;;;11.67;6.60;;;5.40;99.90;;;;;;5084476;28;20185;-75
2024/02/07 07:48:55;;;;;;;7.63;5.57;;;5.40;99.90;;;;;;5073158;28;20200;-74
2024/02/07 07:51:21;;;;;;;7.50;4.87;;;5.50;99.90;;;;;;5072445;28;20175;-74
2024/02/07 07:53:47;;;;;;;5.43;4.90;;;5.60;99.90;;;;;;5072830;28;20249;-76
2024/02/07 07:56:13;;;;;;;9.90;4.77;;;5.50;99.90;;;;;;5073612;28;20240;-76
2024/02/07 07:58:40;;;;;;;5.50;5.00;;;5.50;99.90;;;;;;5073222;28;20178;-77
2024/02/07 08:01:14;;;;;;;4.93;4.53;;;5.60;99.90;;;;;;5083750;28;20178;-76
2024/02/07 08:03:40;;;;;;;5.30;4.70;;;5.60;99.90;;;;;;5093201;28;20232;-75
2024/02/07 08:06:08;;;;;;;6.47;4.87;;;5.50;99.90;;;;;;5093329;28;20228;-75
2024/02/07 08:08:34;;;;;;;13.13;5.40;;;5.50;99.90;;;;;;5093105;28;20218;-76
2024/02/07 08:10:59;;;;;;;10.00;4.90;;;5.50;99.90;;;;;;5093153;28;20216;-77
2024/02/07 08:13:25;;;;;;;6.03;4.77;;;5.60;99.90;;;;;;5088105;28;20182;-74
2024/02/07 08:15:51;;;;;;;13.30;5.67;;;5.70;99.90;;;;;;5073159;28;20628;-75
2024/02/07 08:18:17;;;;;;;8.33;4.67;;;5.80;99.90;;;;;;5072840;28;20542;-73
2024/02/07 08:20:42;;;;;;;5.97;4.77;;;5.80;99.90;;;;;;5072682;28;20181;-75
2024/02/07 08:23:08;;;;;;;6.13;4.77;;;5.80;99.90;;;;;;5074372;28;20297;-76
2024/02/07 08:25:33;;;;;;;8.13;4.67;;;5.90;99.90;;;;;;5074384;28;20197;-76
2024/02/07 08:27:59;;;;;;;8.60;5.20;;;5.90;99.90;;;;;;5093089;28;20238;-76
2024/02/07 08:30:25;;;;;;;5.40;4.90;;;5.90;99.90;;;;;;5092249;28;20269;-76
2024/02/07 08:32:51;;;;;;;6.23;4.80;;;5.90;99.90;;;;;;5094669;28;20193;-78
2024/02/07 08:35:16;;;;;;;8.77;5.23;;;5.80;99.90;;;;;;5093148;28;20213;-75
2024/02/07 08:37:43;;;;;;;8.13;5.00;;;5.70;99.90;;;;;;5093094;28;20170;-77
2024/02/07 08:40:09;;;;;;;8.27;5.10;;;5.70;99.90;;;;;;5052339;28;20588;-77
2024/02/07 08:42:37;;;;;;;6.57;5.07;;;5.80;99.90;;;;;;5069525;28;20312;-74
2024/02/07 08:45:03;;;;;;;9.80;5.37;;;5.70;99.90;;;;;;5073891;28;20231;-75
2024/02/07 08:47:29;;;;;;;9.30;5.63;;;5.70;99.90;;;;;;5074011;28;20309;-77
2024/02/07 08:49:55;;;;;;;9.23;5.97;;;5.70;99.90;;;;;;5072641;28;20231;-77
2024/02/07 08:52:21;;;;;;;9.17;5.57;;;5.60;99.90;;;;;;5073812;28;20174;-79
2024/02/07 08:54:47;;;;;;;5.80;5.30;;;5.60;99.90;;;;;;5072839;28;20228;-76
2024/02/07 08:57:12;;;;;;;8.00;6.07;;;5.60;99.90;;;;;;5072852;28;20181;-75
2024/02/07 08:59:38;;;;;;;10.70;6.50;;;5.50;99.90;;;;;;5074571;28;20636;-76
2024/02/07 09:02:06;;;;;;;6.37;5.77;;;5.60;99.90;;;;;;5072076;28;20174;-77
2024/02/07 09:04:32;;;;;;;11.97;6.00;;;5.60;99.90;;;;;;5073008;28;20206;-77
2024/02/07 09:06:58;;;;;;;10.10;5.87;;;5.70;99.90;;;;;;5073225;28;20170;-75
2024/02/07 09:09:24;;;;;;;6.43;5.03;;;5.90;99.90;;;;;;5079164;28;20184;-75
2024/02/07 09:11:49;;;;;;;8.03;5.80;;;5.90;99.90;;;;;;5073425;28;20181;-76
2024/02/07 09:14:15;;;;;;;8.37;5.80;;;5.80;99.90;;;;;;5091910;28;20185;-75
2024/02/07 09:16:40;;;;;;;9.33;6.37;;;5.80;99.90;;;;;;5091781;28;20178;-75
2024/02/07 09:19:06;;;;;;;10.70;5.60;;;5.90;99.90;;;;;;5091739;28;20531;-76
2024/02/07 09:21:31;;;;;;;11.00;6.13;;;5.80;99.90;;;;;;5080426;28;20222;-75
2024/02/07 09:23:59;;;;;;;6.23;5.63;;;5.80;99.90;;;;;;5071252;28;20252;-76
2024/02/07 09:26:31;;;;;;;8.33;4.80;;;5.70;99.90;;;;;;5071385;28;20170;-75
2024/02/07 09:28:58;;;;;;;9.67;5.30;;;5.70;99.90;;;;;;5071365;28;20241;-75
2024/02/07 09:31:23;;;;;;;8.37;5.37;;;5.60;99.90;;;;;;5070981;28;20284;-75
2024/02/07 09:33:49;;;;;;;6.60;5.47;;;5.60;99.90;;;;;;5071158;28;20206;-75
2024/02/07 09:36:14;;;;;;;10.43;5.37;;;5.80;99.90;;;;;;5081440;28;20299;-75
2024/02/07 09:38:40;;;;;;;5.53;5.10;;;5.90;99.90;;;;;;5091305;28;20186;-76
2024/02/07 09:41:08;;;;;;;9.63;5.63;;;5.90;99.90;;;;;;5091283;28;20173;-77
2024/02/07 09:43:34;;;;;;;9.73;4.93;;;5.90;99.90;;;;;;5091366;28;20669;-75
2024/02/07 09:46:00;;;;;;;10.73;5.50;;;6.00;99.90;;;;;;5091311;28;20276;-75
2024/02/07 09:48:26;;;;;;;11.23;5.30;;;6.10;99.90;;;;;;5091293;28;20174;-75
2024/02/07 09:50:59;;;;;;;12.90;5.90;;;6.10;99.90;;;;;;5090371;28;20796;-75
2024/02/07 09:53:26;;;;;;;12.37;6.07;;;6.10;99.90;;;;;;5091633;28;20538;-76
2024/02/07 09:55:53;;;;;;;8.47;5.53;;;6.10;99.90;;;;;;5091088;28;20284;-75
2024/02/07 09:58:20;;;;;;;6.37;5.10;;;6.00;99.90;;;;;;5087994;28;20451;-75
2024/02/07 10:00:49;;;;;;;7.67;5.23;;;5.90;99.90;;;;;;5070761;28;20257;-76
2024/02/07 10:03:17;;;;;;;6.40;4.70;;;5.90;99.90;;;;;;5074606;28;20726;-75
2024/02/07 10:05:50;;;;;;;7.30;5.33;;;6.00;99.90;;;;;;5090887;28;20185;-75
2024/02/07 10:08:16;;;;;;;17.10;5.43;;;6.00;99.90;;;;;;5091290;28;20602;-75
2024/02/07 10:10:47;;;;;;;7.73;5.50;;;6.10;99.90;;;;;;5091016;28;20170;-75
2024/02/07 10:13:16;;;;;;;7.77;5.70;;;6.20;99.90;;;;;;5090996;28;20260;-78
2024/02/07 10:15:43;;;;;;;9.63;5.33;;;6.20;99.90;;;;;;5090633;28;20201;-75
2024/02/07 10:18:10;;;;;;;12.97;5.30;;;6.00;99.90;;;;;;5072707;28;20181;-77
2024/02/07 10:20:35;;;;;;;8.07;5.20;;;5.80;99.90;;;;;;5090825;28;20514;-76
2024/02/07 10:23:05;;;;;;;8.33;5.47;;;5.70;99.90;;;;;;5091105;28;20208;-78
2024/02/07 10:25:31;;;;;;;7.73;5.60;;;5.40;99.90;;;;;;5091115;28;20686;-78
2024/02/07 10:28:06;;;;;;;7.93;5.23;;;5.30;99.90;;;;;;5087014;28;20272;-76
2024/02/07 10:30:32;;;;;;;8.73;5.77;;;5.20;99.90;;;;;;5071196;28;20170;-76
2024/02/07 10:32:59;;;;;;;11.07;6.50;;;5.10;99.90;;;;;;5056321;28;20642;-77
2024/02/07 10:35:25;;;;;;;11.13;6.60;;;5.30;99.90;;;;;;5070533;28;20296;-77
2024/02/07 10:37:53;;;;;;;9.90;6.67;;;5.40;99.90;;;;;;5070343;28;20308;-77
2024/02/07 10:40:19;;;;;;;14.97;7.30;;;5.40;99.90;;;;;;5070649;28;20200;-75
2024/02/07 10:42:55;;;;;;;10.37;6.90;;;5.20;99.90;;;;;;5070500;28;20596;-77
2024/02/07 10:45:21;;;;;;;9.40;7.13;;;5.30;99.90;;;;;;5070689;28;20194;-76
2024/02/07 10:47:48;;;;;;;10.63;8.40;;;5.40;99.90;;;;;;5070328;28;20224;-76
2024/02/07 10:50:16;;;;;;;10.43;8.57;;;5.20;99.90;;;;;;5053215;28;20266;-75
2024/02/07 10:52:42;;;;;;;13.33;9.23;;;5.20;99.90;;;;;;5070044;28;20549;-77
2024/02/07 10:55:10;;;;;;;16.10;9.03;;;5.30;99.90;;;;;;5070450;28;20677;-76
2024/02/07 10:57:41;;;;;;;11.47;8.20;;;5.50;99.90;;;;;;5090890;28;20256;-75
2024/02/07 11:00:08;;;;;;;15.50;8.50;;;5.70;99.90;;;;;;5090604;28;20158;-76
2024/02/07 11:02:34;;;;;;;12.80;8.77;;;5.70;99.90;;;;;;5090563;28;20226;-76
2024/02/07 11:05:00;;;;;;;9.43;8.43;;;5.90;99.90;;;;;;5090674;28;20208;-76
2024/02/07 11:07:27;;;;;;;10.70;8.43;;;5.90;99.90;;;;;;5090663;28;20216;-77
2024/02/07 11:09:54;;;;;;;10.60;8.47;;;6.00;99.90;;;;;;5090044;28;20176;-76
2024/02/07 11:12:19;;;;;;;11.40;8.27;;;6.20;99.90;;;;;;5090853;28;20169;-76
2024/02/07 11:14:50;;;;;;;12.37;7.53;;;6.30;99.90;;;;;;5090114;28;20688;-75
2024/02/07 11:17:16;;;;;;;10.23;7.53;;;6.50;99.90;;;;;;5072558;28;20625;-76
2024/02/07 11:19:43;;;;;;;7.60;6.90;;;6.40;99.90;;;;;;5075890;28;20631;-76
2024/02/07 11:22:27;;;;;;;10.03;7.03;;;6.40;99.90;;;;;;5070719;28;20167;-76
2024/02/07 11:24:54;;;;;;;10.53;7.40;;;6.40;99.90;;;;;;5090248;28;20318;-77
2024/02/07 11:27:20;;;;;;;7.93;6.60;;;6.30;99.90;;;;;;5092647;28;20184;-76
2024/02/07 11:29:46;;;;;;;9.43;6.70;;;6.20;99.90;;;;;;5075826;28;20173;-75
2024/02/07 11:32:13;;;;;;;9.80;7.00;;;6.00;99.90;;;;;;5093985;28;20518;-76
2024/02/07 11:37:11;;;;;;;4.73;4.30;;;6.00;99.90;;;;;;5092896;28;20270;-74
2024/02/07 11:39:38;;;;;;;6.67;4.80;;;6.10;99.90;;;;;;5094798;28;20172;-75
2024/02/07 11:42:12;;;;;;;5.37;4.80;;;6.00;99.90;;;;;;5093927;28;20226;-75
2024/02/07 11:44:57;;;;;;;5.93;5.07;;;6.10;99.90;;;;;;5091751;28;20205;-75
2024/02/07 11:47:32;;;;;;;5.87;4.77;;;6.20;99.90;;;;;;5074482;28;20184;-75
2024/02/07 11:50:02;;;;;;;8.03;4.87;;;6.20;99.90;;;;;;5072800;28;20177;-75
2024/02/07 11:52:30;;;;;;;6.10;4.80;;;6.10;99.90;;;;;;5073136;28;20186;-75
2024/02/07 11:55:07;;;;;;;6.57;5.93;;;6.10;99.90;;;;;;5073833;28;20190;-75
2024/02/07 11:57:33;;;;;;;9.97;8.00;;;6.10;99.90;;;;;;5074003;28;20593;-74
2024/02/07 12:00:05;;;;;;;10.73;6.10;;;6.00;99.90;;;;;;5073099;28;20170;-75
2024/02/07 12:02:30;;;;;;;5.33;4.83;;;5.80;99.90;;;;;;5073623;28;20182;-75
2024/02/07 12:04:57;;;;;;;5.53;4.93;;;5.70;99.90;;;;;;5072993;28;20281;-75
2024/02/07 12:07:24;;;;;;;8.83;5.40;;;5.70;99.90;;;;;;5073538;28;20258;-75
2024/02/07 12:09:50;;;;;;;7.63;5.27;;;5.70;99.90;;;;;;5073267;28;20174;-75
2024/02/07 12:12:16;;;;;;;5.10;4.53;;;5.80;99.90;;;;;;5074094;28;20174;-74
2024/02/07 12:14:43;;;;;;;4.53;4.10;;;5.80;99.90;;;;;;5073530;28;20194;-74
2024/02/07 12:17:09;;;;;;;8.70;6.07;;;5.80;99.90;;;;;;5073460;28;20174;-75
2024/02/07 12:19:42;;;;;;;7.03;5.33;;;5.80;99.90;;;;;;5073269;28;20178;-74
2024/02/07 12:22:08;;;;;;;7.77;5.63;;;5.80;99.90;;;;;;5072948;28;20178;-75
2024/02/07 12:24:34;;;;;;;6.70;6.10;;;5.70;99.90;;;;;;5072714;28;20201;-75
2024/02/07 12:27:14;;;;;;;8.80;6.20;;;5.60;99.90;;;;;;5073398;28;20170;-75
2024/02/07 12:29:50;;;;;;;7.53;5.77;;;5.50;99.90;;;;;;5073321;28;20166;-75
2024/02/07 12:32:16;;;;;;;6.67;6.07;;;5.50;99.90;;;;;;5073040;28;20307;-75
2024/02/07 12:34:41;;;;;;;8.70;6.20;;;5.40;99.90;;;;;;5072676;28;20703;-75
2024/02/07 12:37:08;;;;;;;7.43;6.00;;;5.20;99.90;;;;;;5071415;28;20930;-75
2024/02/07 12:39:34;;;;;;;6.10;5.47;;;5.10;99.90;;;;;;5073088;28;20299;-75
2024/02/07 12:42:04;;;;;;;6.70;5.80;;;5.10;99.90;;;;;;5072763;28;20182;-75
2024/02/07 12:44:31;;;;;;;5.93;5.50;;;5.20;99.90;;;;;;5072566;28;20201;-75
2024/02/07 12:46:57;;;;;;;7.20;5.37;;;5.20;99.90;;;;;;5073025;28;20257;-74
2024/02/07 12:49:23;;;;;;;6.17;5.63;;;5.30;99.90;;;;;;5071813;28;20232;-75
2024/02/07 12:51:49;;;;;;;6.47;5.83;;;5.40;99.90;;;;;;5075064;28;20174;-75
2024/02/07 12:54:14;;;;;;;9.93;5.20;;;5.40;99.90;;;;;;5074745;28;20180;-75
2024/02/07 12:56:40;;;;;;;5.23;4.63;;;5.40;99.90;;;;;;5072799;28;20667;-75
2024/02/07 12:59:07;;;;;;;5.97;5.37;;;5.40;99.90;;;;;;5071065;28;20178;-75
2024/02/07 13:01:33;;;;;;;6.87;5.40;;;5.50;99.90;;;;;;5072189;28;20598;-75
2024/02/07 13:03:59;;;;;;;9.73;5.37;;;5.30;99.90;;;;;;5071926;28;20244;-75
2024/02/07 13:06:25;;;;;;;6.13;5.53;;;5.20;99.90;;;;;;5072024;28;20194;-74
2024/02/07 13:08:51;;;;;;;8.67;5.57;;;5.30;99.90;;;;;;5072081;28;20245;-74
2024/02/07 13:11:17;;;;;;;6.23;5.63;;;5.30;99.90;;;;;;5071837;28;20174;-74
2024/02/07 13:13:43;;;;;;;6.10;5.03;;;5.20;99.90;;;;;;5071805;28;20178;-74
2024/02/07 13:16:09;;;;;;;10.57;5.37;;;5.20;99.90;;;;;;5071808;28;20203;-74
2024/02/07 13:18:35;;;;;;;5.93;5.33;;;5.10;99.90;;;;;;5072175;28;20204;-74
2024/02/07 13:21:05;;;;;;;6.67;5.50;;;5.10;99.90;;;;;;5078613;28;20356;-73
2024/02/07 13:23:33;;;;;;;10.17;5.27;;;5.10;99.90;;;;;;5076208;28;20202;-75
2024/02/07 13:26:00;;;;;;;6.83;5.83;;;5.00;99.90;;;;;;5071965;28;20190;-74
2024/02/07 13:28:25;;;;;;;8.17;5.53;;;5.00;99.90;;;;;;5071967;28;20171;-74
2024/02/07 13:30:51;;;;;;;8.67;5.80;;;5.10;99.90;;;;;;5071703;28;20535;-74
2024/02/07 13:33:16;;;;;;;8.33;6.23;;;5.10;99.90;;;;;;5071883;28;20228;-75
2024/02/07 13:35:42;;;;;;;7.60;5.97;;;5.20;99.90;;;;;;5072247;28;20323;-75
2024/02/07 13:38:08;;;;;;;9.00;6.07;;;5.20;99.90;;;;;;5071399;28;20652;-73
2024/02/07 13:40:33;;;;;;;8.10;6.00;;;5.20;99.90;;;;;;5071140;28;20216;-74
2024/02/07 13:42:59;;;;;;;5.50;5.07;;;5.20;99.90;;;;;;5071499;28;20201;-73
2024/02/07 13:45:24;;;;;;;6.83;6.20;;;5.20;99.90;;;;;;5071092;28;20221;-74
2024/02/07 13:47:50;;;;;;;6.07;5.50;;;5.20;99.90;;;;;;5071599;28;20245;-74
2024/02/07 13:50:17;;;;;;;5.27;4.83;;;5.30;99.90;;;;;;5071184;28;20232;-74